This is the latest recevied weather packets stored in our database for station/object KE0TNI-13. If no packets are shown the sender has not sent any weather packets the latest 10 day(s).
| Time | Temp. | Humidity | Pressure | Rain* | Wind** | Luminosity | Snow |
|---|---|---|---|---|---|---|---|
| 1777565671 | -2.22° C | 95% | 1021.9 hPa | 0 mm | - | 12 W/m² | - |
| 1777565369 | -2.22° C | 95% | 1022.2 hPa | 0 mm | - | 13 W/m² | - |
| 1777565064 | -2.22° C | 95% | 1022.4 hPa | 0 mm | - | 16 W/m² | - |
| 1777564760 | -2.22° C | 95% | 1022 hPa | 0 mm | - | 11 W/m² | - |
| 1777564455 | -2.22° C | 95% | 1022.2 hPa | 0 mm | - | 10 W/m² | - |
| 1777564151 | -2.22° C | 95% | 1022 hPa | 0 mm | - | 7 W/m² | - |
| 1777563848 | -2.22° C | 95% | 1022.2 hPa | 0 mm | - | 7 W/m² | - |
| 1777563544 | -2.22° C | 95% | 1022.6 hPa | 0 mm | - | 8 W/m² | - |
| 1777563244 | -2.22° C | 96% | 1021.9 hPa | 0 mm | - | 5 W/m² | - |
| 1777562941 | -2.22° C | 95% | 1022.2 hPa | 0 mm | - | 7 W/m² | - |
| 1777562636 | -2.22° C | 95% | 1022.3 hPa | 0 mm | - | 5 W/m² | - |
| 1777562336 | -2.22° C | 96% | 1022.6 hPa | 0 mm | - | 7 W/m² | - |
| 1777562032 | -2.22° C | 96% | 1022.3 hPa | 0 mm | - | 8 W/m² | - |
| 1777561729 | -2.22° C | 96% | 1022.2 hPa | 0 mm | - | 6 W/m² | - |
| 1777561424 | -2.22° C | 96% | 1022.2 hPa | 0 mm | - | 5 W/m² | - |
| 1777561120 | -2.22° C | 96% | 1022.3 hPa | 0 mm | - | 6 W/m² | - |
| 1777560815 | -2.22° C | 97% | 1022 hPa | 0 mm | - | 4 W/m² | - |
| 1777560513 | -2.22° C | 97% | 1022.3 hPa | 0 mm | - | 5 W/m² | - |
| 1777560211 | -2.22° C | 97% | 1022.2 hPa | 0 mm | - | 4 W/m² | - |
| 1777559907 | -2.22° C | 97% | 1022.6 hPa | 0 mm | - | 3 W/m² | - |
| 1777559602 | -2.22° C | 97% | 1022.6 hPa | 0 mm | - | 3 W/m² | - |
| 1777559301 | -2.22° C | 97% | 1022.3 hPa | 0 mm | - | 3 W/m² | - |
| 1777558996 | -2.22° C | 96% | 1022 hPa | 0 mm | - | 3 W/m² | - |
| 1777558692 | -2.22° C | 96% | 1022.2 hPa | 0 mm | - | 3 W/m² | - |
| 1777558389 | -2.22° C | 96% | 1022.4 hPa | 0 mm | - | 3 W/m² | - |
* Rain latest hour (hover to see other rain measurements)
** Current wind speed in m/s (hover to see current wind gust speed)